createdAt,value
2022-11-08T00:00:51.629Z,6.20
2022-11-08T00:03:58.387Z,5.57
2022-11-08T00:07:22.995Z,6.00
2022-11-08T00:10:45.288Z,5.67
2022-11-08T00:14:03.286Z,5.30
2022-11-08T00:17:10.327Z,6.20
2022-11-08T00:20:16.125Z,4.90
2022-11-08T00:23:25.645Z,5.00
2022-11-08T00:26:31.480Z,5.40
2022-11-08T00:29:38.585Z,5.00
2022-11-08T00:32:44.754Z,5.10
2022-11-08T00:35:51.245Z,5.43
2022-11-08T00:38:59.639Z,5.63
2022-11-08T00:42:08.835Z,5.53
2022-11-08T00:45:14.479Z,5.80
2022-11-08T00:48:21.403Z,6.77
2022-11-08T00:51:29.824Z,5.83
2022-11-08T00:54:39.322Z,5.70
2022-11-08T00:58:00.841Z,5.70
2022-11-08T01:01:13.303Z,6.30
2022-11-08T01:04:21.505Z,6.33
2022-11-08T01:07:28.011Z,6.57
2022-11-08T01:10:36.432Z,5.57
2022-11-08T01:13:43.217Z,6.10
2022-11-08T01:16:48.847Z,5.97
2022-11-08T01:19:55.327Z,6.20
2022-11-08T01:23:00.956Z,5.90
2022-11-08T01:26:13.969Z,5.97
2022-11-08T01:29:19.633Z,5.20
2022-11-08T01:32:26.060Z,6.07
2022-11-08T01:35:33.826Z,6.00
2022-11-08T01:38:40.359Z,5.63
2022-11-08T01:41:48.716Z,5.87
2022-11-08T01:45:03.307Z,5.87
2022-11-08T01:48:09.126Z,5.77
2022-11-08T01:51:19.900Z,6.17
2022-11-08T01:54:31.785Z,6.20
2022-11-08T01:57:47.308Z,6.80
2022-11-08T02:00:53.379Z,6.00
2022-11-08T02:04:03.310Z,6.57
2022-11-08T02:07:10.600Z,6.30
2022-11-08T02:10:17.112Z,6.60
2022-11-08T02:13:28.322Z,5.97
2022-11-08T02:16:34.911Z,6.17
2022-11-08T02:19:46.049Z,6.70
2022-11-08T02:22:59.741Z,6.57
2022-11-08T02:26:09.630Z,8.17
2022-11-08T02:29:30.661Z,7.97
2022-11-08T02:32:41.221Z,8.60
2022-11-08T02:35:51.849Z,7.57
2022-11-08T02:39:00.853Z,8.07
2022-11-08T02:42:10.584Z,8.93
2022-11-08T02:45:17.241Z,8.97
2022-11-08T02:48:23.732Z,8.27
2022-11-08T02:51:30.248Z,8.77
2022-11-08T02:54:35.900Z,8.07
2022-11-08T02:57:45.155Z,7.60
2022-11-08T03:00:51.230Z,7.20
2022-11-08T03:03:57.715Z,8.13
2022-11-08T03:07:03.340Z,7.47
2022-11-08T03:10:10.876Z,8.13
2022-11-08T03:13:19.536Z,7.47
2022-11-08T03:16:26.128Z,7.00
2022-11-08T03:19:31.716Z,7.53
2022-11-08T03:22:38.189Z,6.80
2022-11-08T03:25:44.028Z,6.57
2022-11-08T03:28:53.312Z,6.87
2022-11-08T03:31:58.948Z,6.50
2022-11-08T03:35:07.184Z,5.97
2022-11-08T03:38:12.784Z,6.23
2022-11-08T03:41:19.241Z,5.73
2022-11-08T03:44:27.903Z,5.70
2022-11-08T03:47:34.393Z,5.60
2022-11-08T03:50:40.024Z,5.83
2022-11-08T03:53:46.482Z,6.10
2022-11-08T03:56:52.374Z,5.60
2022-11-08T04:00:03.071Z,6.50
2022-11-08T04:03:17.172Z,5.33
2022-11-08T04:06:23.849Z,5.20
2022-11-08T04:09:29.452Z,4.77
2022-11-08T04:12:51.814Z,5.77
2022-11-08T04:16:01.186Z,5.47
2022-11-08T04:19:23.949Z,7.40
2022-11-08T04:22:29.594Z,9.23
2022-11-08T04:25:36.059Z,11.13
2022-11-08T04:28:42.909Z,10.03
2022-11-08T04:31:52.161Z,10.37
2022-11-08T04:34:57.849Z,10.27
2022-11-08T04:38:06.041Z,11.30
2022-11-08T04:41:14.671Z,11.13
2022-11-08T04:44:21.361Z,12.00
2022-11-08T04:47:36.006Z,11.30
2022-11-08T04:50:45.400Z,13.53
2022-11-08T04:53:51.168Z,14.43
2022-11-08T04:56:57.617Z,14.47
2022-11-08T05:00:03.900Z,15.20
2022-11-08T05:03:13.133Z,14.43
2022-11-08T05:06:21.209Z,16.37
2022-11-08T05:09:27.746Z,15.57
2022-11-08T05:12:33.461Z,14.90
2022-11-08T05:15:40.070Z,14.00
2022-11-08T05:18:48.941Z,15.20
2022-11-08T05:22:11.405Z,17.63
2022-11-08T05:25:18.004Z,15.90
2022-11-08T05:28:24.975Z,14.83
2022-11-08T05:31:30.671Z,15.20
2022-11-08T05:34:39.972Z,13.40
2022-11-08T05:37:45.675Z,13.43
2022-11-08T05:40:52.358Z,12.23
2022-11-08T05:43:58.628Z,11.27
2022-11-08T05:47:08.148Z,13.60
2022-11-08T05:53:50.769Z,12.23
2022-11-08T05:56:56.451Z,11.73
2022-11-08T06:00:04.239Z,13.43
2022-11-08T06:03:20.959Z,12.70
2022-11-08T06:06:31.995Z,13.27
2022-11-08T06:09:37.646Z,13.53
2022-11-08T06:12:44.736Z,14.40
2022-11-08T06:15:52.080Z,16.63
2022-11-08T06:18:58.619Z,17.53
2022-11-08T06:22:07.117Z,17.93
2022-11-08T06:25:13.871Z,23.87
2022-11-08T06:28:19.544Z,20.23
2022-11-08T06:31:26.003Z,22.07
2022-11-08T06:34:31.599Z,22.00
2022-11-08T06:37:41.138Z,24.20
2022-11-08T06:40:47.747Z,25.47
2022-11-08T06:43:54.223Z,24.67
2022-11-08T06:47:00.214Z,24.40
2022-11-08T06:50:10.729Z,24.03
2022-11-08T06:53:19.347Z,22.87
2022-11-08T06:56:25.945Z,22.33
2022-11-08T06:59:32.386Z,22.67
2022-11-08T07:02:38.997Z,20.43
2022-11-08T07:05:45.009Z,17.73
2022-11-08T07:08:54.357Z,17.70
2022-11-08T07:12:00.289Z,15.20
2022-11-08T07:15:09.676Z,14.80
2022-11-08T07:18:18.084Z,12.90
2022-11-08T07:21:25.036Z,12.67
2022-11-08T07:24:33.522Z,10.93
2022-11-08T07:27:40.002Z,12.80
2022-11-08T07:30:45.692Z,11.17
2022-11-08T07:33:52.154Z,10.90
2022-11-08T07:36:58.179Z,11.30
2022-11-08T07:40:10.158Z,10.10
2022-11-08T07:43:16.792Z,10.33
2022-11-08T07:46:24.011Z,9.27
2022-11-08T07:49:29.647Z,7.90
2022-11-08T07:52:36.234Z,8.73
2022-11-08T07:55:45.064Z,9.23
2022-11-08T07:58:53.366Z,9.43
2022-11-08T08:01:59.000Z,7.40
2022-11-08T08:05:08.403Z,7.43
2022-11-08T08:08:15.829Z,7.60
2022-11-08T08:11:29.442Z,8.53
2022-11-08T08:14:38.243Z,8.10
2022-11-08T08:17:44.932Z,7.40
2022-11-08T08:20:50.670Z,7.77
2022-11-08T08:23:57.184Z,8.23
2022-11-08T08:27:08.667Z,8.23
2022-11-08T08:30:15.572Z,6.93
2022-11-08T08:33:28.461Z,6.70
2022-11-08T08:36:36.348Z,6.47
2022-11-08T08:39:42.301Z,6.33
2022-11-08T08:42:51.602Z,7.10
2022-11-08T08:45:57.759Z,6.57
2022-11-08T08:49:04.522Z,6.37
2022-11-08T08:52:10.169Z,6.10
2022-11-08T08:55:16.687Z,5.80
2022-11-08T08:58:25.337Z,4.53
2022-11-08T09:04:40.373Z,4.17
2022-11-08T09:07:47.043Z,5.53
2022-11-08T09:10:56.640Z,5.37
2022-11-08T09:14:06.365Z,6.03
2022-11-08T09:17:12.077Z,5.87
2022-11-08T09:20:19.007Z,6.13
2022-11-08T09:23:24.646Z,5.97
2022-11-08T09:26:31.167Z,6.20
2022-11-08T09:29:40.022Z,5.97
2022-11-08T09:33:00.123Z,6.13
2022-11-08T09:36:11.322Z,5.70
2022-11-08T09:39:18.802Z,6.47
2022-11-08T09:42:42.569Z,6.17
2022-11-08T09:45:56.164Z,5.90
2022-11-08T09:49:06.327Z,5.90
2022-11-08T09:52:22.863Z,6.63
2022-11-08T09:55:35.038Z,6.03
2022-11-08T09:58:46.165Z,6.13
2022-11-08T10:01:54.675Z,6.00
2022-11-08T10:05:06.038Z,5.87
2022-11-08T10:08:20.366Z,6.07
2022-11-08T10:11:49.045Z,5.90
2022-11-08T10:15:13.630Z,4.50
2022-11-08T10:18:40.164Z,4.63
2022-11-08T10:21:56.783Z,4.07
2022-11-08T10:25:06.381Z,4.30
2022-11-08T10:28:17.999Z,4.20
2022-11-08T10:31:24.872Z,4.30
2022-11-08T10:34:42.144Z,4.60
2022-11-08T10:37:53.595Z,4.83
2022-11-08T10:41:03.971Z,5.43
2022-11-08T10:44:16.179Z,4.97
2022-11-08T10:47:27.239Z,5.17
2022-11-08T10:50:49.019Z,4.47
2022-11-08T10:53:54.673Z,4.73
2022-11-08T10:57:01.183Z,4.40
2022-11-08T11:00:20.772Z,4.50
2022-11-08T11:03:29.988Z,3.73
2022-11-08T11:06:38.585Z,3.70
2022-11-08T11:09:45.260Z,3.80
2022-11-08T11:12:56.162Z,3.83
2022-11-08T11:16:06.470Z,3.27
2022-11-08T11:19:18.677Z,2.63
2022-11-08T11:22:32.465Z,2.37
2022-11-08T11:25:38.494Z,2.20
2022-11-08T11:29:17.845Z,1.53
2022-11-08T11:32:26.816Z,2.00
2022-11-08T11:35:45.901Z,1.67
2022-11-08T11:39:01.196Z,2.13
2022-11-08T11:42:43.715Z,2.00
2022-11-08T11:45:50.338Z,1.97
2022-11-08T11:49:03.470Z,2.10
2022-11-08T11:52:17.826Z,2.07
2022-11-08T11:55:34.494Z,1.70
2022-11-08T11:58:59.716Z,1.90
2022-11-08T12:02:33.478Z,1.23
2022-11-08T12:05:57.736Z,1.47
2022-11-08T12:09:19.150Z,1.57
2022-11-08T12:12:41.391Z,1.70
2022-11-08T12:15:54.951Z,1.50
2022-11-08T12:19:19.055Z,1.70
2022-11-08T12:22:47.643Z,1.90
2022-11-08T12:25:59.882Z,2.00
2022-11-08T12:29:32.758Z,1.80
2022-11-08T12:32:58.859Z,2.00
2022-11-08T12:36:17.126Z,1.50
2022-11-08T12:39:33.545Z,1.57
2022-11-08T12:43:03.702Z,1.70
2022-11-08T12:46:18.484Z,1.47
2022-11-08T12:49:39.728Z,2.60
2022-11-08T12:52:58.444Z,1.90
2022-11-08T12:56:08.676Z,1.90
2022-11-08T12:59:24.225Z,1.80
2022-11-08T13:02:37.187Z,1.80
2022-11-08T13:05:48.769Z,1.50
2022-11-08T13:09:06.109Z,1.60
2022-11-08T13:12:33.455Z,1.77
2022-11-08T13:15:40.152Z,2.07
2022-11-08T13:18:53.542Z,1.87
2022-11-08T13:22:00.025Z,1.93
2022-11-08T13:25:28.249Z,1.60
2022-11-08T13:28:42.915Z,1.50
2022-11-08T13:31:55.589Z,1.97
2022-11-08T13:35:12.238Z,1.50
2022-11-08T13:38:30.868Z,1.50
2022-11-08T13:42:06.873Z,1.70
2022-11-08T13:45:28.164Z,1.60
2022-11-08T13:48:41.066Z,1.50
2022-11-08T13:51:51.700Z,1.30
2022-11-08T13:54:58.226Z,1.47
2022-11-08T13:58:31.593Z,1.43
2022-11-08T14:02:03.481Z,1.40
2022-11-08T14:05:44.805Z,1.73
2022-11-08T14:09:03.390Z,1.40
2022-11-08T14:12:16.802Z,1.73
2022-11-08T14:15:29.735Z,1.50
2022-11-08T14:18:39.412Z,1.67
2022-11-08T14:21:50.826Z,1.90
2022-11-08T14:25:12.076Z,1.47
2022-11-08T14:28:29.550Z,1.50
2022-11-08T14:31:36.826Z,1.47
2022-11-08T14:34:43.491Z,1.67
2022-11-08T14:37:49.287Z,1.53
2022-11-08T14:41:04.736Z,1.87
2022-11-08T14:44:19.089Z,1.93
2022-11-08T14:47:30.522Z,1.93
2022-11-08T14:50:38.026Z,1.70
2022-11-08T14:53:49.919Z,1.90
2022-11-08T14:56:58.596Z,1.97
2022-11-08T15:00:12.573Z,2.10
2022-11-08T15:03:22.332Z,1.90
2022-11-08T15:06:34.238Z,2.20
2022-11-08T15:09:40.417Z,2.60
2022-11-08T15:12:50.008Z,2.37
2022-11-08T15:15:58.605Z,2.33
2022-11-08T15:19:21.379Z,2.30
2022-11-08T15:22:29.517Z,1.83
2022-11-08T15:25:38.390Z,1.93
2022-11-08T15:28:57.817Z,2.00
2022-11-08T15:32:06.838Z,2.30
2022-11-08T15:35:25.729Z,2.10
2022-11-08T15:38:37.603Z,2.10
2022-11-08T15:41:44.311Z,1.83
2022-11-08T15:45:09.932Z,2.20
2022-11-08T15:48:23.936Z,2.63
2022-11-08T15:51:30.375Z,2.10
2022-11-08T15:54:35.997Z,2.33
2022-11-08T15:57:45.802Z,2.50
2022-11-08T16:00:54.290Z,3.00
2022-11-08T16:04:00.723Z,2.67
2022-11-08T16:07:07.569Z,3.33
2022-11-08T16:10:14.635Z,3.77
2022-11-08T16:13:24.632Z,4.47
2022-11-08T16:16:35.194Z,4.30
2022-11-08T16:19:40.903Z,3.50
2022-11-08T16:22:47.701Z,4.53
2022-11-08T16:25:56.070Z,3.57
2022-11-08T16:29:03.372Z,4.10
2022-11-08T16:32:12.965Z,4.23
2022-11-08T16:35:19.759Z,3.80
2022-11-08T16:38:27.811Z,4.10
2022-11-08T16:41:37.641Z,4.00
2022-11-08T16:44:45.805Z,3.87
2022-11-08T16:47:55.603Z,4.50
2022-11-08T16:51:03.434Z,4.37
2022-11-08T16:54:20.507Z,5.27
2022-11-08T16:57:34.821Z,5.27
2022-11-08T17:00:42.802Z,5.00
2022-11-08T17:03:51.457Z,5.40
2022-11-08T17:06:58.046Z,6.03
2022-11-08T17:10:03.702Z,5.27
2022-11-08T17:13:10.407Z,5.43
2022-11-08T17:16:16.682Z,7.23
2022-11-08T17:19:25.956Z,7.10
2022-11-08T17:22:31.667Z,6.90
2022-11-08T17:25:40.043Z,6.97
2022-11-08T17:28:45.690Z,8.03
2022-11-08T17:31:52.506Z,7.10
2022-11-08T17:35:00.963Z,7.83
2022-11-08T17:38:09.657Z,7.87
2022-11-08T17:41:17.324Z,7.90
2022-11-08T17:44:23.765Z,8.60
2022-11-08T17:47:30.909Z,9.23
2022-11-08T17:50:40.539Z,9.40
2022-11-08T17:53:47.037Z,8.67
2022-11-08T17:56:53.490Z,8.73
2022-11-08T17:59:59.216Z,8.77
2022-11-08T18:03:12.562Z,10.77
2022-11-08T18:06:21.103Z,9.63
2022-11-08T18:09:27.794Z,10.93
2022-11-08T18:12:33.368Z,11.00
2022-11-08T18:15:39.850Z,10.40
2022-11-08T18:18:46.695Z,9.60
2022-11-08T18:21:56.038Z,10.50
2022-11-08T18:25:03.023Z,9.77
2022-11-08T18:28:10.031Z,10.47
2022-11-08T18:31:18.644Z,9.53
2022-11-08T18:34:25.118Z,10.57
2022-11-08T18:37:34.681Z,9.97
2022-11-08T18:40:41.211Z,9.97
2022-11-08T18:43:47.601Z,9.83
2022-11-08T18:46:54.074Z,10.67
2022-11-08T18:50:03.858Z,9.57
2022-11-08T18:53:14.152Z,9.90
2022-11-08T18:56:19.729Z,9.17
2022-11-08T18:59:26.175Z,8.40
2022-11-08T19:02:31.829Z,9.07
2022-11-08T19:05:38.347Z,8.83
2022-11-08T19:08:47.607Z,8.80
2022-11-08T19:11:54.287Z,8.97
2022-11-08T19:14:59.918Z,9.03
2022-11-08T19:18:08.975Z,8.73
2022-11-08T19:21:17.634Z,8.23
2022-11-08T19:24:26.896Z,9.57
2022-11-08T19:27:32.758Z,9.50
2022-11-08T19:30:39.239Z,9.80
2022-11-08T19:33:45.098Z,9.27
2022-11-08T19:36:55.813Z,9.77
2022-11-08T19:40:06.511Z,10.03
2022-11-08T19:43:13.168Z,9.87
2022-11-08T19:46:21.422Z,9.33
2022-11-08T19:49:30.974Z,9.40
2022-11-08T19:52:38.109Z,9.63
2022-11-08T19:55:50.288Z,9.17
2022-11-08T19:58:57.043Z,9.67
2022-11-08T20:02:04.463Z,9.33
2022-11-08T20:05:12.559Z,9.47
2022-11-08T20:08:20.668Z,9.87
2022-11-08T20:11:31.705Z,9.77
2022-11-08T20:14:41.627Z,9.73
2022-11-08T20:17:48.253Z,10.27
2022-11-08T20:20:58.935Z,9.20
2022-11-08T20:24:06.407Z,9.43
2022-11-08T20:27:16.803Z,9.20
2022-11-08T20:30:22.456Z,9.43
2022-11-08T20:33:28.949Z,9.40
2022-11-08T20:36:37.616Z,9.70
2022-11-08T20:39:44.231Z,10.50
2022-11-08T20:42:52.996Z,9.57
2022-11-08T20:46:06.340Z,9.13
2022-11-08T20:49:12.167Z,9.27
2022-11-08T20:52:22.485Z,9.60
2022-11-08T20:55:29.610Z,8.73
2022-11-08T20:58:39.526Z,8.80
2022-11-08T21:01:45.193Z,9.17
2022-11-08T21:04:51.681Z,9.43
2022-11-08T21:11:24.126Z,9.13
2022-11-08T21:14:32.769Z,10.17
2022-11-08T21:17:39.187Z,9.60
2022-11-08T21:20:44.907Z,8.87
2022-11-08T21:23:52.511Z,9.30
2022-11-08T21:26:58.087Z,9.40
2022-11-08T21:30:07.889Z,8.97
2022-11-08T21:33:13.542Z,9.07
2022-11-08T21:36:20.735Z,9.43
2022-11-08T21:39:26.506Z,8.83
2022-11-08T21:42:38.025Z,9.03
2022-11-08T21:45:48.050Z,8.43
2022-11-08T21:48:57.188Z,9.37
2022-11-08T21:52:03.807Z,8.53
2022-11-08T21:55:11.773Z,8.43
2022-11-08T21:58:17.570Z,9.27
2022-11-08T22:01:30.531Z,8.83
2022-11-08T22:04:36.661Z,9.47
2022-11-08T22:07:43.196Z,9.87
2022-11-08T22:10:49.510Z,10.07
2022-11-08T22:13:55.969Z,8.93
2022-11-08T22:17:06.303Z,9.67
2022-11-08T22:20:13.606Z,9.17
2022-11-08T22:23:19.473Z,10.20
2022-11-08T22:26:25.938Z,9.93
2022-11-08T22:29:31.566Z,8.80
2022-11-08T22:32:40.853Z,10.07
2022-11-08T22:35:46.618Z,10.17
2022-11-08T22:38:53.193Z,10.03
2022-11-08T22:41:58.906Z,9.83
2022-11-08T22:45:07.646Z,9.67
2022-11-08T22:48:17.252Z,9.93
2022-11-08T22:51:23.951Z,9.50
2022-11-08T22:54:29.549Z,10.23
2022-11-08T22:57:35.983Z,9.97
2022-11-08T23:01:13.798Z,11.30
2022-11-08T23:04:39.723Z,10.27
2022-11-08T23:07:48.231Z,10.37
2022-11-08T23:11:10.994Z,10.83
2022-11-08T23:14:36.798Z,10.50
2022-11-08T23:17:43.994Z,9.70
2022-11-08T23:21:08.340Z,10.67
2022-11-08T23:24:23.543Z,10.03
2022-11-08T23:27:45.612Z,10.43
2022-11-08T23:31:07.882Z,10.97
2022-11-08T23:34:13.454Z,10.70
2022-11-08T23:37:23.180Z,10.87
2022-11-08T23:40:44.625Z,11.37
2022-11-08T23:44:06.766Z,11.60
2022-11-08T23:47:12.423Z,11.40
2022-11-08T23:50:18.930Z,11.20
2022-11-08T23:53:28.125Z,10.90
2022-11-08T23:56:34.691Z,10.23
2022-11-08T23:59:40.827Z,9.97
